sensor_id;sensor_type;location;lat;lon;timestamp;P1;durP1;ratioP1;P2;durP2;ratioP2
38208;SDS011;24016;52.102;11.584;2023-02-28T00:00:38;7.53;;;4.72;;
38208;SDS011;24016;52.102;11.584;2023-02-28T00:03:06;8.63;;;4.65;;
38208;SDS011;24016;52.102;11.584;2023-02-28T00:05:32;6.38;;;4.80;;
38208;SDS011;24016;52.102;11.584;2023-02-28T00:07:58;9.63;;;4.95;;
38208;SDS011;24016;52.102;11.584;2023-02-28T00:10:25;9.98;;;5.10;;
38208;SDS011;24016;52.102;11.584;2023-02-28T00:12:55;8.27;;;5.00;;
38208;SDS011;24016;52.102;11.584;2023-02-28T00:15:24;6.32;;;4.90;;
38208;SDS011;24016;52.102;11.584;2023-02-28T00:17:51;6.70;;;4.35;;
38208;SDS011;24016;52.102;11.584;2023-02-28T00:20:18;8.85;;;4.85;;
38208;SDS011;24016;52.102;11.584;2023-02-28T00:22:47;7.97;;;4.55;;
38208;SDS011;24016;52.102;11.584;2023-02-28T00:25:19;8.60;;;5.35;;
38208;SDS011;24016;52.102;11.584;2023-02-28T00:27:50;7.97;;;4.45;;
38208;SDS011;24016;52.102;11.584;2023-02-28T00:30:20;7.57;;;5.00;;
38208;SDS011;24016;52.102;11.584;2023-02-28T00:32:49;6.95;;;4.53;;
38208;SDS011;24016;52.102;11.584;2023-02-28T00:35:15;7.03;;;4.95;;
38208;SDS011;24016;52.102;11.584;2023-02-28T00:37:41;8.48;;;4.90;;
38208;SDS011;24016;52.102;11.584;2023-02-28T00:40:09;9.15;;;4.90;;
38208;SDS011;24016;52.102;11.584;2023-02-28T00:42:37;7.38;;;4.50;;
38208;SDS011;24016;52.102;11.584;2023-02-28T00:45:05;6.43;;;4.55;;
38208;SDS011;24016;52.102;11.584;2023-02-28T00:47:32;7.60;;;4.38;;
38208;SDS011;24016;52.102;11.584;2023-02-28T00:49:57;8.68;;;4.20;;
38208;SDS011;24016;52.102;11.584;2023-02-28T00:52:23;6.65;;;4.72;;
38208;SDS011;24016;52.102;11.584;2023-02-28T00:54:48;8.52;;;4.88;;
38208;SDS011;24016;52.102;11.584;2023-02-28T00:57:14;7.85;;;4.80;;
38208;SDS011;24016;52.102;11.584;2023-02-28T00:59:40;10.80;;;4.85;;
38208;SDS011;24016;52.102;11.584;2023-02-28T01:02:05;8.57;;;5.13;;
38208;SDS011;24016;52.102;11.584;2023-02-28T01:04:31;8.07;;;4.95;;
38208;SDS011;24016;52.102;11.584;2023-02-28T01:06:56;6.45;;;4.70;;
38208;SDS011;24016;52.102;11.584;2023-02-28T01:09:22;7.65;;;5.00;;
38208;SDS011;24016;52.102;11.584;2023-02-28T01:11:47;7.40;;;5.03;;
38208;SDS011;24016;52.102;11.584;2023-02-28T01:14:14;8.40;;;5.00;;
38208;SDS011;24016;52.102;11.584;2023-02-28T01:16:40;8.77;;;5.70;;
38208;SDS011;24016;52.102;11.584;2023-02-28T01:19:06;10.52;;;5.70;;
38208;SDS011;24016;52.102;11.584;2023-02-28T01:21:31;8.50;;;5.38;;
38208;SDS011;24016;52.102;11.584;2023-02-28T01:23:58;10.07;;;5.15;;
38208;SDS011;24016;52.102;11.584;2023-02-28T01:26:24;11.63;;;5.22;;
38208;SDS011;24016;52.102;11.584;2023-02-28T01:28:50;9.60;;;5.35;;
38208;SDS011;24016;52.102;11.584;2023-02-28T01:31:16;8.48;;;5.90;;
38208;SDS011;24016;52.102;11.584;2023-02-28T01:33:43;10.20;;;5.90;;
38208;SDS011;24016;52.102;11.584;2023-02-28T01:36:11;9.30;;;5.13;;
38208;SDS011;24016;52.102;11.584;2023-02-28T01:38:38;8.57;;;5.53;;
38208;SDS011;24016;52.102;11.584;2023-02-28T01:41:04;12.20;;;5.45;;
38208;SDS011;24016;52.102;11.584;2023-02-28T01:43:31;8.25;;;4.88;;
38208;SDS011;24016;52.102;11.584;2023-02-28T01:46:17;9.23;;;4.38;;
38208;SDS011;24016;52.102;11.584;2023-02-28T01:49:03;10.13;;;4.63;;
38208;SDS011;24016;52.102;11.584;2023-02-28T01:51:35;7.28;;;4.68;;
38208;SDS011;24016;52.102;11.584;2023-02-28T01:54:22;8.93;;;5.60;;
38208;SDS011;24016;52.102;11.584;2023-02-28T01:56:52;7.85;;;4.88;;
38208;SDS011;24016;52.102;11.584;2023-02-28T01:59:23;11.02;;;5.50;;
38208;SDS011;24016;52.102;11.584;2023-02-28T02:01:56;10.55;;;5.93;;
38208;SDS011;24016;52.102;11.584;2023-02-28T02:04:23;8.52;;;4.70;;
38208;SDS011;24016;52.102;11.584;2023-02-28T02:06:51;9.85;;;5.03;;
38208;SDS011;24016;52.102;11.584;2023-02-28T02:09:17;7.72;;;4.72;;
38208;SDS011;24016;52.102;11.584;2023-02-28T02:11:43;8.70;;;4.68;;
38208;SDS011;24016;52.102;11.584;2023-02-28T02:14:18;7.13;;;5.00;;
38208;SDS011;24016;52.102;11.584;2023-02-28T02:29:12;6.53;;;4.78;;
38208;SDS011;24016;52.102;11.584;2023-02-28T02:32:00;6.72;;;4.75;;
38208;SDS011;24016;52.102;11.584;2023-02-28T02:37:43;7.13;;;4.80;;
38208;SDS011;24016;52.102;11.584;2023-02-28T02:40:19;7.40;;;4.65;;
38208;SDS011;24016;52.102;11.584;2023-02-28T02:42:55;7.63;;;4.60;;
38208;SDS011;24016;52.102;11.584;2023-02-28T02:45:38;8.00;;;4.87;;
38208;SDS011;24016;52.102;11.584;2023-02-28T02:48:10;6.10;;;4.53;;
38208;SDS011;24016;52.102;11.584;2023-02-28T02:50:42;6.82;;;4.75;;
38208;SDS011;24016;52.102;11.584;2023-02-28T02:55:38;7.28;;;4.25;;
38208;SDS011;24016;52.102;11.584;2023-02-28T02:58:09;8.10;;;4.93;;
38208;SDS011;24016;52.102;11.584;2023-02-28T03:00:41;6.60;;;4.65;;
38208;SDS011;24016;52.102;11.584;2023-02-28T03:03:11;8.15;;;4.35;;
38208;SDS011;24016;52.102;11.584;2023-02-28T03:05:56;7.90;;;4.25;;
38208;SDS011;24016;52.102;11.584;2023-02-28T03:08:23;7.15;;;4.22;;
38208;SDS011;24016;52.102;11.584;2023-02-28T03:10:49;5.57;;;3.95;;
38208;SDS011;24016;52.102;11.584;2023-02-28T03:20:59;9.63;;;4.47;;
38208;SDS011;24016;52.102;11.584;2023-02-28T03:23:43;6.57;;;3.85;;
38208;SDS011;24016;52.102;11.584;2023-02-28T03:26:19;5.75;;;3.80;;
38208;SDS011;24016;52.102;11.584;2023-02-28T03:29:31;5.53;;;3.70;;
38208;SDS011;24016;52.102;11.584;2023-02-28T03:31:50;6.15;;;3.72;;
38208;SDS011;24016;52.102;11.584;2023-02-28T03:34:26;8.80;;;3.72;;
38208;SDS011;24016;52.102;11.584;2023-02-28T03:37:02;5.28;;;3.45;;
38208;SDS011;24016;52.102;11.584;2023-02-28T03:39:36;5.75;;;4.10;;
38208;SDS011;24016;52.102;11.584;2023-02-28T03:42:20;6.22;;;3.95;;
38208;SDS011;24016;52.102;11.584;2023-02-28T03:47:25;6.88;;;4.00;;
38208;SDS011;24016;52.102;11.584;2023-02-28T03:50:03;5.95;;;3.78;;
38208;SDS011;24016;52.102;11.584;2023-02-28T03:52:42;6.22;;;3.55;;
38208;SDS011;24016;52.102;11.584;2023-02-28T03:55:11;6.30;;;3.47;;
38208;SDS011;24016;52.102;11.584;2023-02-28T04:00:37;7.13;;;4.00;;
38208;SDS011;24016;52.102;11.584;2023-02-28T04:03:06;6.03;;;3.30;;
38208;SDS011;24016;52.102;11.584;2023-02-28T04:05:32;5.85;;;3.90;;
38208;SDS011;24016;52.102;11.584;2023-02-28T04:08:06;5.40;;;3.70;;
38208;SDS011;24016;52.102;11.584;2023-02-28T04:10:32;5.03;;;3.97;;
38208;SDS011;24016;52.102;11.584;2023-02-28T04:12:58;5.53;;;3.42;;
38208;SDS011;24016;52.102;11.584;2023-02-28T04:15:24;6.65;;;3.67;;
38208;SDS011;24016;52.102;11.584;2023-02-28T04:17:49;6.70;;;3.80;;
38208;SDS011;24016;52.102;11.584;2023-02-28T04:20:15;8.65;;;3.67;;
38208;SDS011;24016;52.102;11.584;2023-02-28T04:22:41;5.50;;;3.67;;
38208;SDS011;24016;52.102;11.584;2023-02-28T04:25:06;5.07;;;3.65;;
38208;SDS011;24016;52.102;11.584;2023-02-28T04:27:32;7.20;;;3.95;;
38208;SDS011;24016;52.102;11.584;2023-02-28T04:29:58;7.85;;;4.30;;
38208;SDS011;24016;52.102;11.584;2023-02-28T04:32:24;6.70;;;4.32;;
38208;SDS011;24016;52.102;11.584;2023-02-28T04:34:49;8.38;;;3.50;;
38208;SDS011;24016;52.102;11.584;2023-02-28T04:37:15;5.75;;;4.00;;
38208;SDS011;24016;52.102;11.584;2023-02-28T04:39:41;4.78;;;3.70;;
38208;SDS011;24016;52.102;11.584;2023-02-28T04:42:07;5.90;;;3.53;;
38208;SDS011;24016;52.102;11.584;2023-02-28T04:44:33;8.80;;;4.40;;
38208;SDS011;24016;52.102;11.584;2023-02-28T04:46:58;6.65;;;3.78;;
38208;SDS011;24016;52.102;11.584;2023-02-28T04:49:25;5.50;;;3.88;;
38208;SDS011;24016;52.102;11.584;2023-02-28T04:51:50;6.53;;;3.75;;
38208;SDS011;24016;52.102;11.584;2023-02-28T04:54:17;7.22;;;4.10;;
38208;SDS011;24016;52.102;11.584;2023-02-28T04:56:43;4.97;;;3.72;;
38208;SDS011;24016;52.102;11.584;2023-02-28T04:59:08;6.28;;;4.10;;
38208;SDS011;24016;52.102;11.584;2023-02-28T05:01:34;6.72;;;4.13;;
38208;SDS011;24016;52.102;11.584;2023-02-28T05:04:01;6.53;;;3.72;;
38208;SDS011;24016;52.102;11.584;2023-02-28T05:06:29;5.80;;;4.10;;
38208;SDS011;24016;52.102;11.584;2023-02-28T05:08:57;6.57;;;4.68;;
38208;SDS011;24016;52.102;11.584;2023-02-28T05:11:24;7.57;;;5.30;;
38208;SDS011;24016;52.102;11.584;2023-02-28T05:13:52;8.25;;;5.03;;
38208;SDS011;24016;52.102;11.584;2023-02-28T05:16:18;8.25;;;4.97;;
38208;SDS011;24016;52.102;11.584;2023-02-28T05:18:44;6.30;;;4.70;;
38208;SDS011;24016;52.102;11.584;2023-02-28T05:21:17;9.43;;;4.75;;
38208;SDS011;24016;52.102;11.584;2023-02-28T05:23:49;9.15;;;5.32;;
38208;SDS011;24016;52.102;11.584;2023-02-28T05:26:14;6.85;;;4.82;;
38208;SDS011;24016;52.102;11.584;2023-02-28T05:28:40;7.53;;;5.07;;
38208;SDS011;24016;52.102;11.584;2023-02-28T05:31:06;9.85;;;5.05;;
38208;SDS011;24016;52.102;11.584;2023-02-28T05:33:32;11.05;;;7.47;;
38208;SDS011;24016;52.102;11.584;2023-02-28T05:35:58;10.07;;;7.43;;
38208;SDS011;24016;52.102;11.584;2023-02-28T05:38:23;9.63;;;5.70;;
38208;SDS011;24016;52.102;11.584;2023-02-28T05:40:49;8.85;;;5.75;;
38208;SDS011;24016;52.102;11.584;2023-02-28T05:43:18;6.43;;;4.85;;
38208;SDS011;24016;52.102;11.584;2023-02-28T05:45:44;6.18;;;4.68;;
38208;SDS011;24016;52.102;11.584;2023-02-28T05:48:09;9.15;;;5.55;;
38208;SDS011;24016;52.102;11.584;2023-02-28T05:50:34;8.45;;;5.40;;
38208;SDS011;24016;52.102;11.584;2023-02-28T05:53:01;7.57;;;5.13;;
38208;SDS011;24016;52.102;11.584;2023-02-28T05:55:26;7.75;;;5.53;;
38208;SDS011;24016;52.102;11.584;2023-02-28T05:57:52;10.30;;;5.38;;
38208;SDS011;24016;52.102;11.584;2023-02-28T06:00:18;9.90;;;5.22;;
38208;SDS011;24016;52.102;11.584;2023-02-28T06:02:43;6.60;;;5.20;;
38208;SDS011;24016;52.102;11.584;2023-02-28T06:05:16;9.75;;;5.88;;
38208;SDS011;24016;52.102;11.584;2023-02-28T06:07:43;7.10;;;5.10;;
38208;SDS011;24016;52.102;11.584;2023-02-28T06:10:12;12.05;;;5.28;;
38208;SDS011;24016;52.102;11.584;2023-02-28T06:12:38;9.55;;;5.05;;
38208;SDS011;24016;52.102;11.584;2023-02-28T06:15:04;8.40;;;5.88;;
38208;SDS011;24016;52.102;11.584;2023-02-28T06:17:30;8.10;;;5.97;;
38208;SDS011;24016;52.102;11.584;2023-02-28T06:19:55;9.48;;;7.30;;
38208;SDS011;24016;52.102;11.584;2023-02-28T06:22:21;9.15;;;6.60;;
38208;SDS011;24016;52.102;11.584;2023-02-28T06:24:46;10.40;;;5.97;;
38208;SDS011;24016;52.102;11.584;2023-02-28T06:27:12;8.45;;;5.88;;
38208;SDS011;24016;52.102;11.584;2023-02-28T06:29:38;8.95;;;5.93;;
38208;SDS011;24016;52.102;11.584;2023-02-28T06:32:04;10.10;;;5.38;;
38208;SDS011;24016;52.102;11.584;2023-02-28T06:34:30;9.50;;;5.85;;
38208;SDS011;24016;52.102;11.584;2023-02-28T06:36:56;10.98;;;6.07;;
38208;SDS011;24016;52.102;11.584;2023-02-28T06:39:27;8.68;;;5.65;;
38208;SDS011;24016;52.102;11.584;2023-02-28T06:41:53;8.68;;;5.35;;
38208;SDS011;24016;52.102;11.584;2023-02-28T06:44:19;8.70;;;5.40;;
38208;SDS011;24016;52.102;11.584;2023-02-28T06:46:45;10.18;;;5.30;;
38208;SDS011;24016;52.102;11.584;2023-02-28T06:49:11;7.57;;;5.20;;
38208;SDS011;24016;52.102;11.584;2023-02-28T06:51:38;8.07;;;5.10;;
38208;SDS011;24016;52.102;11.584;2023-02-28T06:54:06;15.68;;;5.95;;
38208;SDS011;24016;52.102;11.584;2023-02-28T06:56:34;8.18;;;5.30;;
38208;SDS011;24016;52.102;11.584;2023-02-28T06:59:00;12.50;;;4.72;;
38208;SDS011;24016;52.102;11.584;2023-02-28T07:01:26;6.88;;;4.43;;
38208;SDS011;24016;52.102;11.584;2023-02-28T07:03:53;10.93;;;4.70;;
38208;SDS011;24016;52.102;11.584;2023-02-28T07:06:19;6.28;;;4.65;;
38208;SDS011;24016;52.102;11.584;2023-02-28T07:08:49;10.27;;;3.75;;
38208;SDS011;24016;52.102;11.584;2023-02-28T07:11:15;6.43;;;4.60;;
38208;SDS011;24016;52.102;11.584;2023-02-28T07:13:41;6.82;;;4.28;;
38208;SDS011;24016;52.102;11.584;2023-02-28T07:16:08;6.13;;;4.13;;
38208;SDS011;24016;52.102;11.584;2023-02-28T07:18:35;8.25;;;4.43;;
38208;SDS011;24016;52.102;11.584;2023-02-28T07:21:06;8.20;;;5.00;;
38208;SDS011;24016;52.102;11.584;2023-02-28T07:23:33;6.25;;;4.57;;
38208;SDS011;24016;52.102;11.584;2023-02-28T07:25:59;7.00;;;5.20;;
38208;SDS011;24016;52.102;11.584;2023-02-28T07:28:25;14.98;;;7.28;;
38208;SDS011;24016;52.102;11.584;2023-02-28T07:30:50;6.95;;;5.20;;
38208;SDS011;24016;52.102;11.584;2023-02-28T07:33:16;5.72;;;4.03;;
38208;SDS011;24016;52.102;11.584;2023-02-28T07:35:41;9.90;;;4.15;;
38208;SDS011;24016;52.102;11.584;2023-02-28T07:38:07;6.90;;;4.45;;
38208;SDS011;24016;52.102;11.584;2023-02-28T07:40:33;7.20;;;4.30;;
38208;SDS011;24016;52.102;11.584;2023-02-28T07:43:00;8.80;;;4.45;;
38208;SDS011;24016;52.102;11.584;2023-02-28T07:45:26;7.03;;;4.57;;
38208;SDS011;24016;52.102;11.584;2023-02-28T07:47:53;7.30;;;4.20;;
38208;SDS011;24016;52.102;11.584;2023-02-28T07:50:19;6.95;;;4.60;;
38208;SDS011;24016;52.102;11.584;2023-02-28T07:52:45;8.13;;;4.47;;
38208;SDS011;24016;52.102;11.584;2023-02-28T07:55:11;5.47;;;3.63;;
38208;SDS011;24016;52.102;11.584;2023-02-28T07:57:36;9.00;;;4.10;;
38208;SDS011;24016;52.102;11.584;2023-02-28T08:00:03;7.22;;;3.63;;
38208;SDS011;24016;52.102;11.584;2023-02-28T08:02:30;9.30;;;3.38;;
38208;SDS011;24016;52.102;11.584;2023-02-28T08:04:55;6.40;;;3.88;;
38208;SDS011;24016;52.102;11.584;2023-02-28T08:07:21;4.72;;;3.42;;
38208;SDS011;24016;52.102;11.584;2023-02-28T08:09:46;4.45;;;3.10;;
38208;SDS011;24016;52.102;11.584;2023-02-28T08:12:12;5.72;;;3.40;;
38208;SDS011;24016;52.102;11.584;2023-02-28T08:14:38;4.55;;;2.97;;
38208;SDS011;24016;52.102;11.584;2023-02-28T08:17:04;4.75;;;3.08;;
38208;SDS011;24016;52.102;11.584;2023-02-28T08:19:30;6.45;;;3.10;;
38208;SDS011;24016;52.102;11.584;2023-02-28T08:21:56;7.22;;;3.55;;
38208;SDS011;24016;52.102;11.584;2023-02-28T08:24:22;6.50;;;3.03;;
38208;SDS011;24016;52.102;11.584;2023-02-28T08:26:48;6.55;;;3.03;;
38208;SDS011;24016;52.102;11.584;2023-02-28T08:29:14;5.07;;;3.08;;
38208;SDS011;24016;52.102;11.584;2023-02-28T08:31:40;4.60;;;2.88;;
38208;SDS011;24016;52.102;11.584;2023-02-28T08:34:07;6.53;;;3.40;;
38208;SDS011;24016;52.102;11.584;2023-02-28T08:36:37;6.30;;;3.50;;
38208;SDS011;24016;52.102;11.584;2023-02-28T08:39:03;6.10;;;2.90;;
38208;SDS011;24016;52.102;11.584;2023-02-28T08:41:29;3.85;;;2.70;;
38208;SDS011;24016;52.102;11.584;2023-02-28T08:43:55;5.03;;;2.92;;
38208;SDS011;24016;52.102;11.584;2023-02-28T08:46:20;5.53;;;2.90;;
38208;SDS011;24016;52.102;11.584;2023-02-28T08:48:46;4.95;;;3.00;;
38208;SDS011;24016;52.102;11.584;2023-02-28T08:51:13;8.27;;;3.20;;
38208;SDS011;24016;52.102;11.584;2023-02-28T08:53:41;4.95;;;2.70;;
38208;SDS011;24016;52.102;11.584;2023-02-28T08:56:08;4.60;;;2.60;;
38208;SDS011;24016;52.102;11.584;2023-02-28T08:58:37;6.32;;;2.80;;
38208;SDS011;24016;52.102;11.584;2023-02-28T09:01:07;5.10;;;3.10;;
38208;SDS011;24016;52.102;11.584;2023-02-28T09:03:37;7.05;;;2.50;;
38208;SDS011;24016;52.102;11.584;2023-02-28T09:06:03;4.70;;;2.95;;
38208;SDS011;24016;52.102;11.584;2023-02-28T09:08:30;4.55;;;2.42;;
38208;SDS011;24016;52.102;11.584;2023-02-28T09:10:56;8.00;;;2.80;;
38208;SDS011;24016;52.102;11.584;2023-02-28T09:13:23;6.03;;;2.17;;
38208;SDS011;24016;52.102;11.584;2023-02-28T09:15:49;5.60;;;2.58;;
38208;SDS011;24016;52.102;11.584;2023-02-28T09:18:15;5.35;;;2.38;;
38208;SDS011;24016;52.102;11.584;2023-02-28T09:20:41;2.65;;;1.90;;
38208;SDS011;24016;52.102;11.584;2023-02-28T09:23:08;3.58;;;2.20;;
38208;SDS011;24016;52.102;11.584;2023-02-28T09:25:35;5.70;;;2.78;;
38208;SDS011;24016;52.102;11.584;2023-02-28T09:28:00;3.35;;;2.30;;
38208;SDS011;24016;52.102;11.584;2023-02-28T09:30:26;3.15;;;2.05;;
38208;SDS011;24016;52.102;11.584;2023-02-28T09:32:52;6.20;;;2.22;;
38208;SDS011;24016;52.102;11.584;2023-02-28T09:35:19;4.63;;;2.17;;
38208;SDS011;24016;52.102;11.584;2023-02-28T09:37:45;3.67;;;2.17;;
38208;SDS011;24016;52.102;11.584;2023-02-28T09:40:12;3.95;;;2.45;;
38208;SDS011;24016;52.102;11.584;2023-02-28T09:42:39;3.60;;;2.17;;
38208;SDS011;24016;52.102;11.584;2023-02-28T09:45:06;4.97;;;2.55;;
38208;SDS011;24016;52.102;11.584;2023-02-28T09:47:46;3.78;;;2.28;;
38208;SDS011;24016;52.102;11.584;2023-02-28T09:50:18;3.70;;;2.25;;
38208;SDS011;24016;52.102;11.584;2023-02-28T09:52:49;3.78;;;2.40;;
38208;SDS011;24016;52.102;11.584;2023-02-28T09:55:20;3.75;;;2.20;;
38208;SDS011;24016;52.102;11.584;2023-02-28T09:57:52;3.40;;;2.22;;
38208;SDS011;24016;52.102;11.584;2023-02-28T10:03:21;3.03;;;2.00;;
38208;SDS011;24016;52.102;11.584;2023-02-28T10:08:40;3.88;;;2.17;;
38208;SDS011;24016;52.102;11.584;2023-02-28T10:11:15;5.30;;;2.10;;
38208;SDS011;24016;52.102;11.584;2023-02-28T10:16:50;3.53;;;2.17;;
38208;SDS011;24016;52.102;11.584;2023-02-28T10:19:27;3.78;;;2.35;;
38208;SDS011;24016;52.102;11.584;2023-02-28T10:22:20;2.88;;;1.90;;
38208;SDS011;24016;52.102;11.584;2023-02-28T10:24:51;4.88;;;2.10;;
38208;SDS011;24016;52.102;11.584;2023-02-28T10:27:25;2.97;;;2.03;;
38208;SDS011;24016;52.102;11.584;2023-02-28T10:29:55;5.18;;;2.03;;
38208;SDS011;24016;52.102;11.584;2023-02-28T10:32:23;3.85;;;2.00;;
38208;SDS011;24016;52.102;11.584;2023-02-28T10:37:43;3.85;;;1.95;;
38208;SDS011;24016;52.102;11.584;2023-02-28T10:40:34;3.10;;;1.60;;
38208;SDS011;24016;52.102;11.584;2023-02-28T10:43:04;3.03;;;1.90;;
38208;SDS011;24016;52.102;11.584;2023-02-28T10:45:54;3.40;;;1.77;;
38208;SDS011;24016;52.102;11.584;2023-02-28T10:53:16;3.53;;;1.73;;
38208;SDS011;24016;52.102;11.584;2023-02-28T10:56:06;3.13;;;1.50;;
38208;SDS011;24016;52.102;11.584;2023-02-28T11:01:17;3.53;;;2.00;;
38208;SDS011;24016;52.102;11.584;2023-02-28T11:03:45;3.88;;;1.85;;
38208;SDS011;24016;52.102;11.584;2023-02-28T11:06:33;4.25;;;2.38;;
38208;SDS011;24016;52.102;11.584;2023-02-28T11:08:59;3.63;;;2.00;;
38208;SDS011;24016;52.102;11.584;2023-02-28T11:11:40;2.80;;;1.80;;
38208;SDS011;24016;52.102;11.584;2023-02-28T11:14:17;3.45;;;2.05;;
38208;SDS011;24016;52.102;11.584;2023-02-28T11:16:46;3.47;;;1.80;;
38208;SDS011;24016;52.102;11.584;2023-02-28T11:19:20;5.00;;;2.00;;
38208;SDS011;24016;52.102;11.584;2023-02-28T11:21:57;3.85;;;1.75;;
38208;SDS011;24016;52.102;11.584;2023-02-28T11:24:30;3.90;;;2.20;;
38208;SDS011;24016;52.102;11.584;2023-02-28T11:27:05;3.55;;;2.05;;
38208;SDS011;24016;52.102;11.584;2023-02-28T11:29:31;3.60;;;1.80;;
38208;SDS011;24016;52.102;11.584;2023-02-28T11:32:05;3.63;;;2.30;;
38208;SDS011;24016;52.102;11.584;2023-02-28T11:35:03;4.68;;;1.98;;
38208;SDS011;24016;52.102;11.584;2023-02-28T11:37:41;3.20;;;2.00;;
38208;SDS011;24016;52.102;11.584;2023-02-28T11:48:43;2.78;;;2.15;;
38208;SDS011;24016;52.102;11.584;2023-02-28T11:51:12;2.83;;;1.98;;
38208;SDS011;24016;52.102;11.584;2023-02-28T11:56:52;3.60;;;1.92;;
38208;SDS011;24016;52.102;11.584;2023-02-28T12:08:07;4.65;;;2.10;;
38208;SDS011;24016;52.102;11.584;2023-02-28T12:11:16;3.67;;;1.80;;
38208;SDS011;24016;52.102;11.584;2023-02-28T12:13:48;4.07;;;2.05;;
38208;SDS011;24016;52.102;11.584;2023-02-28T12:16:42;3.10;;;2.10;;
38208;SDS011;24016;52.102;11.584;2023-02-28T12:27:32;2.88;;;1.85;;
38208;SDS011;24016;52.102;11.584;2023-02-28T12:30:05;3.63;;;1.85;;
38208;SDS011;24016;52.102;11.584;2023-02-28T12:32:41;2.95;;;1.70;;
38208;SDS011;24016;52.102;11.584;2023-02-28T12:35:25;3.08;;;2.10;;
38208;SDS011;24016;52.102;11.584;2023-02-28T12:37:58;3.45;;;2.00;;
38208;SDS011;24016;52.102;11.584;2023-02-28T12:40:39;2.50;;;1.90;;
38208;SDS011;24016;52.102;11.584;2023-02-28T12:43:12;4.57;;;1.95;;
38208;SDS011;24016;52.102;11.584;2023-02-28T12:45:48;3.70;;;2.42;;
38208;SDS011;24016;52.102;11.584;2023-02-28T12:48:24;3.70;;;1.80;;
38208;SDS011;24016;52.102;11.584;2023-02-28T12:51:04;4.20;;;2.30;;
38208;SDS011;24016;52.102;11.584;2023-02-28T12:53:42;4.22;;;1.98;;
38208;SDS011;24016;52.102;11.584;2023-02-28T12:56:19;4.05;;;2.15;;
38208;SDS011;24016;52.102;11.584;2023-02-28T12:58:58;5.13;;;2.15;;
38208;SDS011;24016;52.102;11.584;2023-02-28T13:07:21;3.28;;;1.83;;
38208;SDS011;24016;52.102;11.584;2023-02-28T13:10:00;3.33;;;1.92;;
38208;SDS011;24016;52.102;11.584;2023-02-28T13:12:28;4.07;;;1.90;;
38208;SDS011;24016;52.102;11.584;2023-02-28T13:15:02;4.03;;;1.95;;
38208;SDS011;24016;52.102;11.584;2023-02-28T13:17:37;3.17;;;1.77;;
38208;SDS011;24016;52.102;11.584;2023-02-28T13:20:19;3.22;;;2.08;;
38208;SDS011;24016;52.102;11.584;2023-02-28T13:22:54;3.80;;;2.35;;
38208;SDS011;24016;52.102;11.584;2023-02-28T13:27:48;4.75;;;2.20;;
38208;SDS011;24016;52.102;11.584;2023-02-28T13:33:21;3.65;;;2.15;;
38208;SDS011;24016;52.102;11.584;2023-02-28T13:36:06;4.65;;;2.78;;
38208;SDS011;24016;52.102;11.584;2023-02-28T13:38:39;4.88;;;2.75;;
38208;SDS011;24016;52.102;11.584;2023-02-28T13:51:55;4.32;;;2.72;;
38208;SDS011;24016;52.102;11.584;2023-02-28T13:54:33;4.28;;;2.63;;
38208;SDS011;24016;52.102;11.584;2023-02-28T13:57:11;3.50;;;2.40;;
38208;SDS011;24016;52.102;11.584;2023-02-28T14:05:18;3.38;;;2.30;;
38208;SDS011;24016;52.102;11.584;2023-02-28T14:07:50;5.28;;;2.38;;
38208;SDS011;24016;52.102;11.584;2023-02-28T14:10:23;4.57;;;2.30;;
38208;SDS011;24016;52.102;11.584;2023-02-28T14:12:52;4.20;;;2.17;;
38208;SDS011;24016;52.102;11.584;2023-02-28T14:20:43;4.93;;;2.47;;
38208;SDS011;24016;52.102;11.584;2023-02-28T14:23:17;3.95;;;2.30;;
38208;SDS011;24016;52.102;11.584;2023-02-28T14:31:36;5.30;;;2.72;;
38208;SDS011;24016;52.102;11.584;2023-02-28T14:34:26;4.75;;;2.58;;
38208;SDS011;24016;52.102;11.584;2023-02-28T14:37:30;4.05;;;2.50;;
38208;SDS011;24016;52.102;11.584;2023-02-28T14:40:01;5.47;;;2.60;;
38208;SDS011;24016;52.102;11.584;2023-02-28T14:42:30;3.83;;;2.28;;
38208;SDS011;24016;52.102;11.584;2023-02-28T14:45:02;4.90;;;2.60;;
38208;SDS011;24016;52.102;11.584;2023-02-28T14:47:30;4.90;;;2.40;;
38208;SDS011;24016;52.102;11.584;2023-02-28T14:49:58;4.18;;;2.35;;
38208;SDS011;24016;52.102;11.584;2023-02-28T14:52:28;5.75;;;2.50;;
38208;SDS011;24016;52.102;11.584;2023-02-28T14:55:06;4.85;;;2.63;;
38208;SDS011;24016;52.102;11.584;2023-02-28T14:57:57;3.25;;;2.00;;
38208;SDS011;24016;52.102;11.584;2023-02-28T15:00:33;4.35;;;2.38;;
38208;SDS011;24016;52.102;11.584;2023-02-28T15:03:17;5.68;;;2.60;;
38208;SDS011;24016;52.102;11.584;2023-02-28T15:05:55;6.22;;;2.40;;
38208;SDS011;24016;52.102;11.584;2023-02-28T15:08:31;5.15;;;2.60;;
38208;SDS011;24016;52.102;11.584;2023-02-28T15:16:05;3.97;;;2.53;;
38208;SDS011;24016;52.102;11.584;2023-02-28T15:18:47;5.07;;;3.00;;
38208;SDS011;24016;52.102;11.584;2023-02-28T15:24:13;4.13;;;2.60;;
38208;SDS011;24016;52.102;11.584;2023-02-28T15:26:49;3.80;;;2.60;;
38208;SDS011;24016;52.102;11.584;2023-02-28T15:29:20;4.68;;;2.80;;
38208;SDS011;24016;52.102;11.584;2023-02-28T15:31:55;5.60;;;2.47;;
38208;SDS011;24016;52.102;11.584;2023-02-28T15:34:35;5.68;;;2.78;;
38208;SDS011;24016;52.102;11.584;2023-02-28T15:37:06;4.20;;;2.65;;
38208;SDS011;24016;52.102;11.584;2023-02-28T15:40:07;4.75;;;3.10;;
38208;SDS011;24016;52.102;11.584;2023-02-28T15:42:41;5.38;;;3.33;;
38208;SDS011;24016;52.102;11.584;2023-02-28T15:45:28;5.13;;;2.70;;
38208;SDS011;24016;52.102;11.584;2023-02-28T15:48:21;5.45;;;2.60;;
38208;SDS011;24016;52.102;11.584;2023-02-28T15:50:52;4.40;;;2.72;;
38208;SDS011;24016;52.102;11.584;2023-02-28T15:53:22;3.95;;;2.60;;
38208;SDS011;24016;52.102;11.584;2023-02-28T15:56:00;4.72;;;2.88;;
38208;SDS011;24016;52.102;11.584;2023-02-28T15:58:28;4.93;;;3.03;;
38208;SDS011;24016;52.102;11.584;2023-02-28T16:01:03;5.68;;;3.17;;
38208;SDS011;24016;52.102;11.584;2023-02-28T16:03:37;5.82;;;2.83;;
38208;SDS011;24016;52.102;11.584;2023-02-28T16:09:08;4.80;;;2.93;;
38208;SDS011;24016;52.102;11.584;2023-02-28T16:11:37;5.18;;;3.08;;
38208;SDS011;24016;52.102;11.584;2023-02-28T16:14:06;6.45;;;2.95;;
38208;SDS011;24016;52.102;11.584;2023-02-28T16:16:33;3.72;;;2.65;;
38208;SDS011;24016;52.102;11.584;2023-02-28T16:19:00;4.63;;;2.80;;
38208;SDS011;24016;52.102;11.584;2023-02-28T16:21:25;4.20;;;2.85;;
38208;SDS011;24016;52.102;11.584;2023-02-28T16:23:54;4.80;;;3.17;;
38208;SDS011;24016;52.102;11.584;2023-02-28T16:26:23;5.47;;;2.92;;
38208;SDS011;24016;52.102;11.584;2023-02-28T16:28:50;4.13;;;2.78;;
38208;SDS011;24016;52.102;11.584;2023-02-28T16:31:16;5.43;;;3.20;;
38208;SDS011;24016;52.102;11.584;2023-02-28T16:33:43;5.32;;;3.70;;
38208;SDS011;24016;52.102;11.584;2023-02-28T16:36:14;4.25;;;3.30;;
38208;SDS011;24016;52.102;11.584;2023-02-28T16:38:41;5.85;;;3.70;;
38208;SDS011;24016;52.102;11.584;2023-02-28T16:41:07;9.40;;;3.20;;
38208;SDS011;24016;52.102;11.584;2023-02-28T16:43:42;4.72;;;3.35;;
38208;SDS011;24016;52.102;11.584;2023-02-28T16:46:10;7.32;;;3.80;;
38208;SDS011;24016;52.102;11.584;2023-02-28T16:48:36;6.85;;;3.78;;
38208;SDS011;24016;52.102;11.584;2023-02-28T16:51:02;4.82;;;3.05;;
38208;SDS011;24016;52.102;11.584;2023-02-28T16:53:29;7.70;;;4.35;;
38208;SDS011;24016;52.102;11.584;2023-02-28T16:55:54;7.85;;;5.28;;
38208;SDS011;24016;52.102;11.584;2023-02-28T16:58:20;6.60;;;4.53;;
38208;SDS011;24016;52.102;11.584;2023-02-28T17:00:46;6.35;;;3.75;;